sensor_id;sensor_type;location;lat;lon;timestamp;P1;durP1;ratioP1;P2;durP2;ratioP2
7971;SDS011;4031;49.758;6.120;2023-10-31T00:02:14;1.37;;;1.27;;
7971;SDS011;4031;49.758;6.120;2023-10-31T00:04:40;1.30;;;1.20;;
7971;SDS011;4031;49.758;6.120;2023-10-31T00:07:06;1.93;;;1.37;;
7971;SDS011;4031;49.758;6.120;2023-10-31T00:09:32;7.20;;;1.90;;
7971;SDS011;4031;49.758;6.120;2023-10-31T00:11:58;1.70;;;1.43;;
7971;SDS011;4031;49.758;6.120;2023-10-31T00:14:24;2.50;;;2.17;;
7971;SDS011;4031;49.758;6.120;2023-10-31T00:16:50;2.97;;;2.67;;
7971;SDS011;4031;49.758;6.120;2023-10-31T00:19:15;3.20;;;2.90;;
7971;SDS011;4031;49.758;6.120;2023-10-31T00:21:41;4.10;;;3.07;;
7971;SDS011;4031;49.758;6.120;2023-10-31T00:24:07;5.00;;;3.27;;
7971;SDS011;4031;49.758;6.120;2023-10-31T00:26:32;4.97;;;2.97;;
7971;SDS011;4031;49.758;6.120;2023-10-31T00:28:58;4.67;;;3.07;;
7971;SDS011;4031;49.758;6.120;2023-10-31T00:31:24;3.67;;;3.37;;
7971;SDS011;4031;49.758;6.120;2023-10-31T00:33:49;3.30;;;3.00;;
7971;SDS011;4031;49.758;6.120;2023-10-31T00:36:15;6.80;;;2.60;;
7971;SDS011;4031;49.758;6.120;2023-10-31T00:38:41;6.97;;;3.00;;
7971;SDS011;4031;49.758;6.120;2023-10-31T00:41:07;3.10;;;2.10;;
7971;SDS011;4031;49.758;6.120;2023-10-31T00:43:32;2.40;;;2.23;;
7971;SDS011;4031;49.758;6.120;2023-10-31T00:45:58;3.40;;;2.10;;
7971;SDS011;4031;49.758;6.120;2023-10-31T00:48:24;2.67;;;2.47;;
7971;SDS011;4031;49.758;6.120;2023-10-31T00:50:50;2.40;;;2.20;;
7971;SDS011;4031;49.758;6.120;2023-10-31T00:53:15;3.50;;;1.97;;
7971;SDS011;4031;49.758;6.120;2023-10-31T00:55:41;2.47;;;2.20;;
7971;SDS011;4031;49.758;6.120;2023-10-31T00:58:07;3.17;;;2.33;;
7971;SDS011;4031;49.758;6.120;2023-10-31T01:00:33;3.33;;;2.53;;
7971;SDS011;4031;49.758;6.120;2023-10-31T01:02:59;2.30;;;1.57;;
7971;SDS011;4031;49.758;6.120;2023-10-31T01:05:25;2.43;;;2.23;;
7971;SDS011;4031;49.758;6.120;2023-10-31T01:07:53;4.80;;;2.47;;
7971;SDS011;4031;49.758;6.120;2023-10-31T01:10:19;2.30;;;2.10;;
7971;SDS011;4031;49.758;6.120;2023-10-31T01:12:45;2.73;;;2.50;;
7971;SDS011;4031;49.758;6.120;2023-10-31T01:15:10;2.30;;;2.10;;
7971;SDS011;4031;49.758;6.120;2023-10-31T01:17:36;2.63;;;2.07;;
7971;SDS011;4031;49.758;6.120;2023-10-31T01:20:02;3.23;;;2.20;;
7971;SDS011;4031;49.758;6.120;2023-10-31T01:22:28;2.33;;;2.13;;
7971;SDS011;4031;49.758;6.120;2023-10-31T01:24:54;2.23;;;2.03;;
7971;SDS011;4031;49.758;6.120;2023-10-31T01:27:20;2.70;;;1.90;;
7971;SDS011;4031;49.758;6.120;2023-10-31T01:29:46;2.13;;;1.23;;
7971;SDS011;4031;49.758;6.120;2023-10-31T01:32:11;2.10;;;1.67;;
7971;SDS011;4031;49.758;6.120;2023-10-31T01:34:37;1.70;;;1.60;;
7971;SDS011;4031;49.758;6.120;2023-10-31T01:37:03;1.83;;;1.50;;
7971;SDS011;4031;49.758;6.120;2023-10-31T01:39:29;4.50;;;1.80;;
7971;SDS011;4031;49.758;6.120;2023-10-31T01:41:54;2.00;;;1.83;;
7971;SDS011;4031;49.758;6.120;2023-10-31T01:44:20;1.70;;;1.60;;
7971;SDS011;4031;49.758;6.120;2023-10-31T01:46:46;3.37;;;2.20;;
7971;SDS011;4031;49.758;6.120;2023-10-31T01:49:12;3.80;;;2.20;;
7971;SDS011;4031;49.758;6.120;2023-10-31T01:51:40;1.73;;;1.63;;
7971;SDS011;4031;49.758;6.120;2023-10-31T01:54:07;5.67;;;2.07;;
7971;SDS011;4031;49.758;6.120;2023-10-31T01:56:34;2.77;;;2.30;;
7971;SDS011;4031;49.758;6.120;2023-10-31T01:59:00;5.73;;;2.57;;
7971;SDS011;4031;49.758;6.120;2023-10-31T02:01:26;2.97;;;2.50;;
7971;SDS011;4031;49.758;6.120;2023-10-31T02:03:53;3.80;;;2.27;;
7971;SDS011;4031;49.758;6.120;2023-10-31T02:06:19;3.87;;;2.53;;
7971;SDS011;4031;49.758;6.120;2023-10-31T02:08:46;2.40;;;2.17;;
7971;SDS011;4031;49.758;6.120;2023-10-31T02:11:12;2.47;;;2.27;;
7971;SDS011;4031;49.758;6.120;2023-10-31T02:13:38;2.87;;;2.63;;
7971;SDS011;4031;49.758;6.120;2023-10-31T02:16:04;2.63;;;2.40;;
7971;SDS011;4031;49.758;6.120;2023-10-31T02:18:30;2.80;;;2.50;;
7971;SDS011;4031;49.758;6.120;2023-10-31T02:20:57;5.00;;;2.40;;
7971;SDS011;4031;49.758;6.120;2023-10-31T02:23:23;3.20;;;2.40;;
7971;SDS011;4031;49.758;6.120;2023-10-31T02:25:48;2.83;;;2.50;;
7971;SDS011;4031;49.758;6.120;2023-10-31T02:28:14;4.27;;;2.37;;
7971;SDS011;4031;49.758;6.120;2023-10-31T02:30:40;2.30;;;2.10;;
7971;SDS011;4031;49.758;6.120;2023-10-31T02:33:06;3.13;;;2.80;;
7971;SDS011;4031;49.758;6.120;2023-10-31T02:35:32;2.80;;;2.20;;
7971;SDS011;4031;49.758;6.120;2023-10-31T02:37:57;3.40;;;2.73;;
7971;SDS011;4031;49.758;6.120;2023-10-31T02:40:23;2.63;;;2.40;;
7971;SDS011;4031;49.758;6.120;2023-10-31T02:42:49;2.80;;;2.50;;
7971;SDS011;4031;49.758;6.120;2023-10-31T02:45:15;3.13;;;2.90;;
7971;SDS011;4031;49.758;6.120;2023-10-31T02:47:40;2.63;;;2.43;;
7971;SDS011;4031;49.758;6.120;2023-10-31T02:50:06;3.07;;;2.80;;
7971;SDS011;4031;49.758;6.120;2023-10-31T02:52:32;2.43;;;2.23;;
7971;SDS011;4031;49.758;6.120;2023-10-31T02:54:58;3.57;;;3.10;;
7971;SDS011;4031;49.758;6.120;2023-10-31T02:57:24;3.57;;;2.10;;
7971;SDS011;4031;49.758;6.120;2023-10-31T02:59:49;3.60;;;2.10;;
7971;SDS011;4031;49.758;6.120;2023-10-31T03:02:15;2.90;;;2.60;;
7971;SDS011;4031;49.758;6.120;2023-10-31T03:04:41;2.57;;;2.37;;
7971;SDS011;4031;49.758;6.120;2023-10-31T03:07:06;3.50;;;2.27;;
7971;SDS011;4031;49.758;6.120;2023-10-31T03:09:32;2.63;;;2.27;;
7971;SDS011;4031;49.758;6.120;2023-10-31T03:11:58;2.43;;;2.23;;
7971;SDS011;4031;49.758;6.120;2023-10-31T03:14:24;2.83;;;2.00;;
7971;SDS011;4031;49.758;6.120;2023-10-31T03:16:50;3.50;;;3.13;;
7971;SDS011;4031;49.758;6.120;2023-10-31T03:19:15;4.93;;;2.80;;
7971;SDS011;4031;49.758;6.120;2023-10-31T03:21:41;2.50;;;2.30;;
7971;SDS011;4031;49.758;6.120;2023-10-31T03:24:07;3.00;;;2.63;;
7971;SDS011;4031;49.758;6.120;2023-10-31T03:26:33;4.57;;;2.83;;
7971;SDS011;4031;49.758;6.120;2023-10-31T03:28:59;3.10;;;2.13;;
7971;SDS011;4031;49.758;6.120;2023-10-31T03:31:24;3.50;;;2.43;;
7971;SDS011;4031;49.758;6.120;2023-10-31T03:33:50;3.17;;;2.63;;
7971;SDS011;4031;49.758;6.120;2023-10-31T03:36:16;2.70;;;2.33;;
7971;SDS011;4031;49.758;6.120;2023-10-31T03:38:42;2.50;;;2.30;;
7971;SDS011;4031;49.758;6.120;2023-10-31T03:41:08;2.13;;;1.93;;
7971;SDS011;4031;49.758;6.120;2023-10-31T03:43:35;2.90;;;2.50;;
7971;SDS011;4031;49.758;6.120;2023-10-31T03:46:01;3.17;;;2.93;;
7971;SDS011;4031;49.758;6.120;2023-10-31T03:48:27;6.03;;;2.87;;
7971;SDS011;4031;49.758;6.120;2023-10-31T03:50:53;2.40;;;2.20;;
7971;SDS011;4031;49.758;6.120;2023-10-31T03:53:18;2.53;;;2.17;;
7971;SDS011;4031;49.758;6.120;2023-10-31T03:55:44;4.80;;;2.70;;
7971;SDS011;4031;49.758;6.120;2023-10-31T03:58:10;5.40;;;3.10;;
7971;SDS011;4031;49.758;6.120;2023-10-31T04:00:36;4.70;;;2.60;;
7971;SDS011;4031;49.758;6.120;2023-10-31T04:03:02;3.20;;;2.63;;
7971;SDS011;4031;49.758;6.120;2023-10-31T04:05:27;3.73;;;2.60;;
7971;SDS011;4031;49.758;6.120;2023-10-31T04:07:53;3.20;;;2.30;;
7971;SDS011;4031;49.758;6.120;2023-10-31T04:10:19;3.13;;;2.77;;
7971;SDS011;4031;49.758;6.120;2023-10-31T04:12:45;4.00;;;3.50;;
7971;SDS011;4031;49.758;6.120;2023-10-31T04:15:11;4.70;;;2.53;;
7971;SDS011;4031;49.758;6.120;2023-10-31T04:17:37;5.10;;;3.37;;
7971;SDS011;4031;49.758;6.120;2023-10-31T04:20:03;8.90;;;3.10;;
7971;SDS011;4031;49.758;6.120;2023-10-31T04:22:29;6.93;;;3.00;;
7971;SDS011;4031;49.758;6.120;2023-10-31T04:24:55;7.70;;;3.43;;
7971;SDS011;4031;49.758;6.120;2023-10-31T04:27:21;8.10;;;3.23;;
7971;SDS011;4031;49.758;6.120;2023-10-31T04:29:47;9.57;;;3.80;;
7971;SDS011;4031;49.758;6.120;2023-10-31T04:32:13;7.90;;;3.43;;
7971;SDS011;4031;49.758;6.120;2023-10-31T04:34:39;4.40;;;2.57;;
7971;SDS011;4031;49.758;6.120;2023-10-31T04:37:05;8.20;;;5.10;;
7971;SDS011;4031;49.758;6.120;2023-10-31T04:39:31;6.00;;;3.30;;
7971;SDS011;4031;49.758;6.120;2023-10-31T04:41:57;7.43;;;3.43;;
7971;SDS011;4031;49.758;6.120;2023-10-31T04:44:22;7.13;;;3.40;;
7971;SDS011;4031;49.758;6.120;2023-10-31T04:46:48;8.30;;;4.50;;
7971;SDS011;4031;49.758;6.120;2023-10-31T04:49:14;8.60;;;3.57;;
7971;SDS011;4031;49.758;6.120;2023-10-31T04:51:43;7.90;;;3.17;;
7971;SDS011;4031;49.758;6.120;2023-10-31T04:54:08;4.80;;;3.20;;
7971;SDS011;4031;49.758;6.120;2023-10-31T04:56:34;4.10;;;3.20;;
7971;SDS011;4031;49.758;6.120;2023-10-31T04:59:01;3.17;;;2.87;;
7971;SDS011;4031;49.758;6.120;2023-10-31T05:01:27;3.80;;;3.50;;
7971;SDS011;4031;49.758;6.120;2023-10-31T05:03:52;3.43;;;2.80;;
7971;SDS011;4031;49.758;6.120;2023-10-31T05:06:22;3.17;;;2.83;;
7971;SDS011;4031;49.758;6.120;2023-10-31T05:08:48;2.77;;;2.43;;
7971;SDS011;4031;49.758;6.120;2023-10-31T05:11:17;3.17;;;2.87;;
7971;SDS011;4031;49.758;6.120;2023-10-31T05:13:44;3.30;;;2.77;;
7971;SDS011;4031;49.758;6.120;2023-10-31T05:16:12;3.10;;;2.23;;
7971;SDS011;4031;49.758;6.120;2023-10-31T05:18:38;2.97;;;2.77;;
7971;SDS011;4031;49.758;6.120;2023-10-31T05:21:04;3.13;;;2.80;;
7971;SDS011;4031;49.758;6.120;2023-10-31T05:23:30;3.07;;;2.70;;
7971;SDS011;4031;49.758;6.120;2023-10-31T05:25:56;2.87;;;2.57;;
7971;SDS011;4031;49.758;6.120;2023-10-31T05:28:22;2.40;;;2.20;;
7971;SDS011;4031;49.758;6.120;2023-10-31T05:30:48;5.70;;;2.60;;
7971;SDS011;4031;49.758;6.120;2023-10-31T05:33:16;4.30;;;2.00;;
7971;SDS011;4031;49.758;6.120;2023-10-31T05:35:42;3.30;;;2.70;;
7971;SDS011;4031;49.758;6.120;2023-10-31T05:38:08;1.90;;;1.80;;
7971;SDS011;4031;49.758;6.120;2023-10-31T05:40:34;1.93;;;1.73;;
7971;SDS011;4031;49.758;6.120;2023-10-31T05:43:02;6.67;;;1.70;;
7971;SDS011;4031;49.758;6.120;2023-10-31T05:45:28;2.30;;;1.50;;
7971;SDS011;4031;49.758;6.120;2023-10-31T05:47:55;3.03;;;1.97;;
7971;SDS011;4031;49.758;6.120;2023-10-31T05:50:20;4.30;;;2.07;;
7971;SDS011;4031;49.758;6.120;2023-10-31T05:52:46;2.60;;;1.80;;
7971;SDS011;4031;49.758;6.120;2023-10-31T05:55:12;2.63;;;2.40;;
7971;SDS011;4031;49.758;6.120;2023-10-31T05:57:38;2.83;;;1.63;;
7971;SDS011;4031;49.758;6.120;2023-10-31T06:00:04;4.30;;;1.90;;
7971;SDS011;4031;49.758;6.120;2023-10-31T06:02:32;2.63;;;1.77;;
7971;SDS011;4031;49.758;6.120;2023-10-31T06:04:57;2.37;;;1.57;;
7971;SDS011;4031;49.758;6.120;2023-10-31T06:07:23;2.57;;;1.80;;
7971;SDS011;4031;49.758;6.120;2023-10-31T06:09:49;1.70;;;1.60;;
7971;SDS011;4031;49.758;6.120;2023-10-31T06:12:14;1.40;;;1.30;;
7971;SDS011;4031;49.758;6.120;2023-10-31T06:14:40;2.37;;;2.17;;
7971;SDS011;4031;49.758;6.120;2023-10-31T06:17:06;1.60;;;1.47;;
7971;SDS011;4031;49.758;6.120;2023-10-31T06:19:35;3.00;;;1.70;;
7971;SDS011;4031;49.758;6.120;2023-10-31T06:22:02;2.33;;;2.00;;
7971;SDS011;4031;49.758;6.120;2023-10-31T06:24:28;2.00;;;1.73;;
7971;SDS011;4031;49.758;6.120;2023-10-31T06:26:54;2.03;;;1.70;;
7971;SDS011;4031;49.758;6.120;2023-10-31T06:29:20;2.30;;;1.37;;
7971;SDS011;4031;49.758;6.120;2023-10-31T06:31:46;4.37;;;2.03;;
7971;SDS011;4031;49.758;6.120;2023-10-31T06:34:12;3.27;;;1.90;;
7971;SDS011;4031;49.758;6.120;2023-10-31T06:36:38;2.30;;;2.10;;
7971;SDS011;4031;49.758;6.120;2023-10-31T06:39:04;4.47;;;1.70;;
7971;SDS011;4031;49.758;6.120;2023-10-31T06:41:29;2.83;;;1.43;;
7971;SDS011;4031;49.758;6.120;2023-10-31T06:43:55;2.77;;;1.60;;
7971;SDS011;4031;49.758;6.120;2023-10-31T06:46:21;4.97;;;2.33;;
7971;SDS011;4031;49.758;6.120;2023-10-31T06:48:46;1.73;;;1.63;;
7971;SDS011;4031;49.758;6.120;2023-10-31T06:51:12;2.30;;;2.10;;
7971;SDS011;4031;49.758;6.120;2023-10-31T06:53:38;3.53;;;2.27;;
7971;SDS011;4031;49.758;6.120;2023-10-31T06:56:03;3.40;;;2.00;;
7971;SDS011;4031;49.758;6.120;2023-10-31T06:58:29;1.80;;;1.70;;
7971;SDS011;4031;49.758;6.120;2023-10-31T07:00:55;2.13;;;1.90;;
7971;SDS011;4031;49.758;6.120;2023-10-31T07:03:23;2.67;;;2.30;;
7971;SDS011;4031;49.758;6.120;2023-10-31T07:05:49;2.20;;;2.00;;
7971;SDS011;4031;49.758;6.120;2023-10-31T07:08:14;7.37;;;2.20;;
7971;SDS011;4031;49.758;6.120;2023-10-31T07:10:40;2.13;;;1.93;;
7971;SDS011;4031;49.758;6.120;2023-10-31T07:13:06;3.60;;;2.07;;
7971;SDS011;4031;49.758;6.120;2023-10-31T07:15:32;2.57;;;2.30;;
7971;SDS011;4031;49.758;6.120;2023-10-31T07:17:57;5.33;;;2.20;;
7971;SDS011;4031;49.758;6.120;2023-10-31T07:20:23;3.07;;;1.87;;
7971;SDS011;4031;49.758;6.120;2023-10-31T07:22:49;3.90;;;2.57;;
7971;SDS011;4031;49.758;6.120;2023-10-31T07:25:15;2.67;;;2.00;;
7971;SDS011;4031;49.758;6.120;2023-10-31T07:27:41;3.10;;;1.67;;
7971;SDS011;4031;49.758;6.120;2023-10-31T07:30:06;2.80;;;1.77;;
7971;SDS011;4031;49.758;6.120;2023-10-31T07:32:32;2.07;;;1.87;;
7971;SDS011;4031;49.758;6.120;2023-10-31T07:34:58;2.90;;;2.20;;
7971;SDS011;4031;49.758;6.120;2023-10-31T07:37:24;9.40;;;2.30;;
7971;SDS011;4031;49.758;6.120;2023-10-31T07:39:49;6.90;;;2.53;;
7971;SDS011;4031;49.758;6.120;2023-10-31T07:42:18;3.30;;;2.20;;
7971;SDS011;4031;49.758;6.120;2023-10-31T07:44:44;2.43;;;1.87;;
7971;SDS011;4031;49.758;6.120;2023-10-31T07:47:10;3.53;;;2.50;;
7971;SDS011;4031;49.758;6.120;2023-10-31T07:49:36;2.30;;;2.07;;
7971;SDS011;4031;49.758;6.120;2023-10-31T07:52:01;3.37;;;2.50;;
7971;SDS011;4031;49.758;6.120;2023-10-31T07:54:27;2.50;;;1.93;;
7971;SDS011;4031;49.758;6.120;2023-10-31T07:56:53;2.20;;;2.10;;
7971;SDS011;4031;49.758;6.120;2023-10-31T07:59:20;3.33;;;2.07;;
7971;SDS011;4031;49.758;6.120;2023-10-31T08:01:46;4.20;;;2.63;;
7971;SDS011;4031;49.758;6.120;2023-10-31T08:04:13;3.40;;;2.40;;
7971;SDS011;4031;49.758;6.120;2023-10-31T08:06:40;3.30;;;2.17;;
7971;SDS011;4031;49.758;6.120;2023-10-31T08:09:06;4.67;;;2.77;;
7971;SDS011;4031;49.758;6.120;2023-10-31T08:11:31;2.30;;;2.10;;
7971;SDS011;4031;49.758;6.120;2023-10-31T08:13:59;2.87;;;2.67;;
7971;SDS011;4031;49.758;6.120;2023-10-31T08:16:25;4.67;;;2.43;;
7971;SDS011;4031;49.758;6.120;2023-10-31T08:18:51;3.20;;;2.63;;
7971;SDS011;4031;49.758;6.120;2023-10-31T08:21:17;2.90;;;2.30;;
7971;SDS011;4031;49.758;6.120;2023-10-31T08:23:43;4.50;;;2.80;;
7971;SDS011;4031;49.758;6.120;2023-10-31T08:26:11;5.13;;;3.30;;
7971;SDS011;4031;49.758;6.120;2023-10-31T08:28:37;2.50;;;2.30;;
7971;SDS011;4031;49.758;6.120;2023-10-31T08:31:03;3.10;;;2.90;;
7971;SDS011;4031;49.758;6.120;2023-10-31T08:33:29;4.90;;;3.60;;
7971;SDS011;4031;49.758;6.120;2023-10-31T08:35:55;3.40;;;2.73;;
7971;SDS011;4031;49.758;6.120;2023-10-31T08:38:20;3.67;;;2.60;;
7971;SDS011;4031;49.758;6.120;2023-10-31T08:40:48;6.87;;;3.47;;
7971;SDS011;4031;49.758;6.120;2023-10-31T08:43:14;4.90;;;3.20;;
7971;SDS011;4031;49.758;6.120;2023-10-31T08:45:40;2.70;;;2.50;;
7971;SDS011;4031;49.758;6.120;2023-10-31T08:48:05;3.33;;;3.03;;
7971;SDS011;4031;49.758;6.120;2023-10-31T08:50:31;4.70;;;2.43;;
7971;SDS011;4031;49.758;6.120;2023-10-31T08:52:57;3.13;;;2.87;;
7971;SDS011;4031;49.758;6.120;2023-10-31T08:55:22;7.53;;;3.00;;
7971;SDS011;4031;49.758;6.120;2023-10-31T08:57:48;3.43;;;2.43;;
7971;SDS011;4031;49.758;6.120;2023-10-31T09:00:14;11.10;;;2.73;;
7971;SDS011;4031;49.758;6.120;2023-10-31T09:02:40;2.60;;;2.20;;
7971;SDS011;4031;49.758;6.120;2023-10-31T09:05:07;2.43;;;2.23;;
7971;SDS011;4031;49.758;6.120;2023-10-31T09:07:33;5.40;;;2.70;;
7971;SDS011;4031;49.758;6.120;2023-10-31T09:09:59;7.50;;;2.10;;
7971;SDS011;4031;49.758;6.120;2023-10-31T09:12:25;4.73;;;2.30;;
7971;SDS011;4031;49.758;6.120;2023-10-31T09:14:50;2.20;;;1.60;;
7971;SDS011;4031;49.758;6.120;2023-10-31T09:17:16;2.13;;;1.60;;
7971;SDS011;4031;49.758;6.120;2023-10-31T09:19:42;4.67;;;2.00;;
7971;SDS011;4031;49.758;6.120;2023-10-31T09:22:08;4.13;;;2.30;;
7971;SDS011;4031;49.758;6.120;2023-10-31T09:24:34;3.80;;;1.87;;
7971;SDS011;4031;49.758;6.120;2023-10-31T09:27:00;3.53;;;1.90;;
7971;SDS011;4031;49.758;6.120;2023-10-31T09:29:25;5.23;;;2.03;;
7971;SDS011;4031;49.758;6.120;2023-10-31T09:31:51;4.80;;;1.83;;
7971;SDS011;4031;49.758;6.120;2023-10-31T09:34:17;4.27;;;1.80;;
7971;SDS011;4031;49.758;6.120;2023-10-31T09:36:43;1.67;;;1.27;;
7971;SDS011;4031;49.758;6.120;2023-10-31T09:39:08;2.80;;;1.80;;
7971;SDS011;4031;49.758;6.120;2023-10-31T09:41:34;2.93;;;2.00;;
7971;SDS011;4031;49.758;6.120;2023-10-31T09:44:00;3.37;;;1.60;;
7971;SDS011;4031;49.758;6.120;2023-10-31T09:46:28;4.27;;;2.17;;
7971;SDS011;4031;49.758;6.120;2023-10-31T09:48:54;3.23;;;1.80;;
7971;SDS011;4031;49.758;6.120;2023-10-31T09:51:21;4.00;;;2.30;;
7971;SDS011;4031;49.758;6.120;2023-10-31T09:53:47;1.73;;;1.63;;
7971;SDS011;4031;49.758;6.120;2023-10-31T09:56:14;2.60;;;1.37;;
7971;SDS011;4031;49.758;6.120;2023-10-31T09:58:40;3.70;;;1.20;;
7971;SDS011;4031;49.758;6.120;2023-10-31T10:01:06;3.63;;;1.43;;
7971;SDS011;4031;49.758;6.120;2023-10-31T10:03:32;4.07;;;1.10;;
7971;SDS011;4031;49.758;6.120;2023-10-31T10:05:58;5.67;;;1.47;;
7971;SDS011;4031;49.758;6.120;2023-10-31T10:08:24;4.40;;;1.23;;
7971;SDS011;4031;49.758;6.120;2023-10-31T10:10:50;1.47;;;1.20;;
7971;SDS011;4031;49.758;6.120;2023-10-31T10:13:17;3.67;;;0.90;;
7971;SDS011;4031;49.758;6.120;2023-10-31T10:15:45;6.33;;;1.70;;
7971;SDS011;4031;49.758;6.120;2023-10-31T10:18:27;1.73;;;1.20;;
7971;SDS011;4031;49.758;6.120;2023-10-31T10:20:54;5.70;;;1.17;;
7971;SDS011;4031;49.758;6.120;2023-10-31T10:23:22;1.27;;;1.10;;
7971;SDS011;4031;49.758;6.120;2023-10-31T10:25:50;1.73;;;1.10;;
7971;SDS011;4031;49.758;6.120;2023-10-31T10:28:17;0.77;;;0.60;;
7971;SDS011;4031;49.758;6.120;2023-10-31T10:30:46;1.27;;;0.70;;
7971;SDS011;4031;49.758;6.120;2023-10-31T10:33:16;5.40;;;1.10;;
7971;SDS011;4031;49.758;6.120;2023-10-31T10:35:42;1.13;;;0.70;;
7971;SDS011;4031;49.758;6.120;2023-10-31T10:38:12;1.33;;;0.60;;
7971;SDS011;4031;49.758;6.120;2023-10-31T10:40:41;1.23;;;0.70;;
7971;SDS011;4031;49.758;6.120;2023-10-31T10:45:45;0.93;;;0.60;;
7971;SDS011;4031;49.758;6.120;2023-10-31T10:48:13;0.80;;;0.80;;
7971;SDS011;4031;49.758;6.120;2023-10-31T10:50:42;0.73;;;0.70;;
7971;SDS011;4031;49.758;6.120;2023-10-31T10:53:21;0.63;;;0.57;;
7971;SDS011;4031;49.758;6.120;2023-10-31T10:55:52;1.07;;;0.60;;
7971;SDS011;4031;49.758;6.120;2023-10-31T11:01:09;1.20;;;0.80;;
7971;SDS011;4031;49.758;6.120;2023-10-31T11:03:35;0.50;;;0.50;;
7971;SDS011;4031;49.758;6.120;2023-10-31T11:06:02;0.60;;;0.50;;
7971;SDS011;4031;49.758;6.120;2023-10-31T11:08:30;0.70;;;0.70;;
7971;SDS011;4031;49.758;6.120;2023-10-31T11:10:57;0.70;;;0.70;;
7971;SDS011;4031;49.758;6.120;2023-10-31T11:13:23;0.90;;;0.60;;
7971;SDS011;4031;49.758;6.120;2023-10-31T11:15:51;0.80;;;0.60;;
7971;SDS011;4031;49.758;6.120;2023-10-31T11:18:21;1.83;;;0.70;;
7971;SDS011;4031;49.758;6.120;2023-10-31T11:20:47;0.97;;;0.60;;
7971;SDS011;4031;49.758;6.120;2023-10-31T11:23:13;0.73;;;0.60;;
7971;SDS011;4031;49.758;6.120;2023-10-31T11:25:43;1.13;;;0.60;;
7971;SDS011;4031;49.758;6.120;2023-10-31T11:28:13;2.07;;;0.70;;
7971;SDS011;4031;49.758;6.120;2023-10-31T11:30:41;1.80;;;0.90;;
7971;SDS011;4031;49.758;6.120;2023-10-31T11:33:13;0.90;;;0.60;;
7971;SDS011;4031;49.758;6.120;2023-10-31T11:35:41;0.80;;;0.70;;
7971;SDS011;4031;49.758;6.120;2023-10-31T11:38:09;2.13;;;0.70;;
7971;SDS011;4031;49.758;6.120;2023-10-31T11:43:14;1.20;;;0.80;;
7971;SDS011;4031;49.758;6.120;2023-10-31T11:45:40;2.30;;;1.03;;
7971;SDS011;4031;49.758;6.120;2023-10-31T11:48:07;1.03;;;1.03;;
7971;SDS011;4031;49.758;6.120;2023-10-31T11:50:35;1.00;;;0.87;;
7971;SDS011;4031;49.758;6.120;2023-10-31T11:53:06;0.90;;;0.73;;
7971;SDS011;4031;49.758;6.120;2023-10-31T11:55:42;1.27;;;0.80;;
7971;SDS011;4031;49.758;6.120;2023-10-31T11:58:16;3.27;;;0.93;;
7971;SDS011;4031;49.758;6.120;2023-10-31T12:00:44;1.23;;;0.83;;
7971;SDS011;4031;49.758;6.120;2023-10-31T12:03:16;1.77;;;1.10;;
7971;SDS011;4031;49.758;6.120;2023-10-31T12:05:54;1.53;;;1.03;;
7971;SDS011;4031;49.758;6.120;2023-10-31T12:08:28;1.33;;;0.90;;
7971;SDS011;4031;49.758;6.120;2023-10-31T12:14:02;2.87;;;1.10;;
7971;SDS011;4031;49.758;6.120;2023-10-31T12:16:31;1.40;;;0.80;;
7971;SDS011;4031;49.758;6.120;2023-10-31T12:19:02;3.70;;;0.97;;
7971;SDS011;4031;49.758;6.120;2023-10-31T12:21:45;3.77;;;1.17;;
7971;SDS011;4031;49.758;6.120;2023-10-31T12:24:13;3.13;;;0.70;;
7971;SDS011;4031;49.758;6.120;2023-10-31T12:26:43;1.73;;;1.30;;
7971;SDS011;4031;49.758;6.120;2023-10-31T12:31:48;1.90;;;0.90;;
7971;SDS011;4031;49.758;6.120;2023-10-31T12:34:18;1.47;;;0.77;;
7971;SDS011;4031;49.758;6.120;2023-10-31T12:36:48;0.80;;;0.70;;
7971;SDS011;4031;49.758;6.120;2023-10-31T12:39:17;0.80;;;0.70;;
7971;SDS011;4031;49.758;6.120;2023-10-31T12:41:47;1.63;;;0.83;;
7971;SDS011;4031;49.758;6.120;2023-10-31T12:44:15;1.00;;;1.00;;
7971;SDS011;4031;49.758;6.120;2023-10-31T12:46:48;1.10;;;0.90;;
7971;SDS011;4031;49.758;6.120;2023-10-31T12:49:17;0.90;;;0.67;;
7971;SDS011;4031;49.758;6.120;2023-10-31T12:51:57;1.27;;;0.67;;
7971;SDS011;4031;49.758;6.120;2023-10-31T12:54:32;1.07;;;0.70;;
7971;SDS011;4031;49.758;6.120;2023-10-31T12:57:03;1.30;;;0.70;;
7971;SDS011;4031;49.758;6.120;2023-10-31T12:59:30;2.30;;;0.97;;
7971;SDS011;4031;49.758;6.120;2023-10-31T13:02:02;1.27;;;0.63;;
7971;SDS011;4031;49.758;6.120;2023-10-31T13:04:30;2.97;;;0.80;;
7971;SDS011;4031;49.758;6.120;2023-10-31T13:07:00;0.93;;;0.60;;
7971;SDS011;4031;49.758;6.120;2023-10-31T13:09:30;1.73;;;1.13;;
7971;SDS011;4031;49.758;6.120;2023-10-31T13:12:00;0.77;;;0.60;;
7971;SDS011;4031;49.758;6.120;2023-10-31T13:14:28;3.80;;;0.70;;
7971;SDS011;4031;49.758;6.120;2023-10-31T13:16:54;0.80;;;0.50;;
7971;SDS011;4031;49.758;6.120;2023-10-31T13:19:20;1.83;;;0.70;;
7971;SDS011;4031;49.758;6.120;2023-10-31T13:21:46;2.57;;;0.70;;
7971;SDS011;4031;49.758;6.120;2023-10-31T13:24:11;0.50;;;0.40;;
7971;SDS011;4031;49.758;6.120;2023-10-31T13:26:37;1.40;;;0.70;;
7971;SDS011;4031;49.758;6.120;2023-10-31T13:29:03;0.60;;;0.60;;
7971;SDS011;4031;49.758;6.120;2023-10-31T13:31:29;1.33;;;0.57;;
7971;SDS011;4031;49.758;6.120;2023-10-31T13:33:54;2.27;;;1.23;;
7971;SDS011;4031;49.758;6.120;2023-10-31T13:36:20;0.80;;;0.70;;
7971;SDS011;4031;49.758;6.120;2023-10-31T13:38:47;0.70;;;0.53;;
7971;SDS011;4031;49.758;6.120;2023-10-31T13:41:13;1.97;;;0.63;;
7971;SDS011;4031;49.758;6.120;2023-10-31T13:43:39;1.23;;;0.70;;
7971;SDS011;4031;49.758;6.120;2023-10-31T13:46:05;1.27;;;0.77;;
7971;SDS011;4031;49.758;6.120;2023-10-31T13:48:31;1.23;;;1.00;;
7971;SDS011;4031;49.758;6.120;2023-10-31T13:50:58;1.87;;;0.90;;
7971;SDS011;4031;49.758;6.120;2023-10-31T13:53:23;0.83;;;0.50;;
7971;SDS011;4031;49.758;6.120;2023-10-31T13:55:49;0.63;;;0.63;;
7971;SDS011;4031;49.758;6.120;2023-10-31T13:58:15;0.90;;;0.60;;
7971;SDS011;4031;49.758;6.120;2023-10-31T14:00:43;3.73;;;0.90;;
7971;SDS011;4031;49.758;6.120;2023-10-31T14:03:11;1.10;;;0.70;;
7971;SDS011;4031;49.758;6.120;2023-10-31T14:05:37;1.47;;;0.70;;
7971;SDS011;4031;49.758;6.120;2023-10-31T14:08:03;0.87;;;0.73;;
7971;SDS011;4031;49.758;6.120;2023-10-31T14:10:31;1.00;;;0.70;;
7971;SDS011;4031;49.758;6.120;2023-10-31T14:12:57;0.60;;;0.60;;
7971;SDS011;4031;49.758;6.120;2023-10-31T14:15:23;0.50;;;0.50;;
7971;SDS011;4031;49.758;6.120;2023-10-31T14:17:50;4.20;;;0.60;;
7971;SDS011;4031;49.758;6.120;2023-10-31T14:20:16;0.83;;;0.83;;
7971;SDS011;4031;49.758;6.120;2023-10-31T14:22:46;1.77;;;0.80;;
7971;SDS011;4031;49.758;6.120;2023-10-31T14:25:15;2.70;;;1.00;;
7971;SDS011;4031;49.758;6.120;2023-10-31T14:27:42;1.47;;;1.00;;
7971;SDS011;4031;49.758;6.120;2023-10-31T14:30:08;1.47;;;1.17;;
7971;SDS011;4031;49.758;6.120;2023-10-31T14:32:36;0.87;;;0.70;;
7971;SDS011;4031;49.758;6.120;2023-10-31T14:35:02;2.70;;;0.90;;
7971;SDS011;4031;49.758;6.120;2023-10-31T14:37:28;2.60;;;1.30;;
7971;SDS011;4031;49.758;6.120;2023-10-31T14:39:54;1.40;;;1.30;;
7971;SDS011;4031;49.758;6.120;2023-10-31T14:42:19;1.47;;;1.20;;
7971;SDS011;4031;49.758;6.120;2023-10-31T14:44:46;2.90;;;1.30;;
7971;SDS011;4031;49.758;6.120;2023-10-31T14:47:12;1.33;;;1.23;;
7971;SDS011;4031;49.758;6.120;2023-10-31T14:49:38;1.00;;;0.90;;
7971;SDS011;4031;49.758;6.120;2023-10-31T14:52:04;1.00;;;0.90;;
7971;SDS011;4031;49.758;6.120;2023-10-31T14:54:33;1.77;;;1.27;;
7971;SDS011;4031;49.758;6.120;2023-10-31T14:57:00;1.70;;;1.10;;
7971;SDS011;4031;49.758;6.120;2023-10-31T14:59:26;2.73;;;1.20;;
7971;SDS011;4031;49.758;6.120;2023-10-31T15:01:52;3.50;;;1.40;;
7971;SDS011;4031;49.758;6.120;2023-10-31T15:04:18;1.80;;;1.20;;
7971;SDS011;4031;49.758;6.120;2023-10-31T15:06:44;1.33;;;1.23;;
7971;SDS011;4031;49.758;6.120;2023-10-31T15:09:09;6.37;;;1.80;;
7971;SDS011;4031;49.758;6.120;2023-10-31T15:11:36;1.33;;;1.23;;
7971;SDS011;4031;49.758;6.120;2023-10-31T15:14:03;2.03;;;1.43;;
7971;SDS011;4031;49.758;6.120;2023-10-31T15:16:30;5.03;;;1.13;;
7971;SDS011;4031;49.758;6.120;2023-10-31T15:18:56;1.43;;;1.00;;
7971;SDS011;4031;49.758;6.120;2023-10-31T15:21:23;4.27;;;1.50;;
7971;SDS011;4031;49.758;6.120;2023-10-31T15:23:49;4.73;;;1.30;;
7971;SDS011;4031;49.758;6.120;2023-10-31T15:26:15;2.97;;;1.00;;